createdAt,value
2022-08-19T00:01:59.480Z,23.26
2022-08-19T00:04:35.997Z,23.21
2022-08-19T00:07:07.448Z,23.22
2022-08-19T00:09:35.785Z,23.16
2022-08-19T00:12:03.785Z,23.19
2022-08-19T00:14:39.547Z,23.16
2022-08-19T00:17:13.801Z,23.16
2022-08-19T00:19:41.778Z,23.07
2022-08-19T00:22:09.786Z,23.03
2022-08-19T00:24:38.963Z,23.03
2022-08-19T00:27:25.709Z,22.95
2022-08-19T00:29:54.467Z,22.93
2022-08-19T00:32:22.051Z,22.91
2022-08-19T00:34:49.626Z,22.92
2022-08-19T00:37:17.181Z,22.90
2022-08-19T00:39:44.788Z,22.88
2022-08-19T00:42:15.812Z,22.83
2022-08-19T00:44:44.239Z,22.82
2022-08-19T00:47:14.105Z,22.82
2022-08-19T00:49:48.713Z,22.83
2022-08-19T00:52:21.238Z,22.75
2022-08-19T00:54:52.603Z,22.81
2022-08-19T00:57:27.745Z,22.76
2022-08-19T01:00:02.370Z,22.74
2022-08-19T01:02:33.980Z,22.70
2022-08-19T01:05:05.593Z,22.66
2022-08-19T01:07:38.252Z,22.63
2022-08-19T01:10:13.692Z,22.58
2022-08-19T01:12:42.247Z,22.54
2022-08-19T01:15:13.617Z,22.44
2022-08-19T01:17:42.932Z,22.37
2022-08-19T01:20:13.682Z,22.28
2022-08-19T01:22:48.544Z,22.25
2022-08-19T01:25:18.302Z,22.20
2022-08-19T01:27:49.775Z,22.12
2022-08-19T01:30:26.415Z,22.11
2022-08-19T01:32:55.203Z,21.96
2022-08-19T01:35:26.775Z,22.00
2022-08-19T01:38:08.471Z,21.95
2022-08-19T01:40:40.543Z,21.98
2022-08-19T01:43:08.871Z,21.97
2022-08-19T01:45:41.326Z,21.89
2022-08-19T01:48:12.313Z,21.96
2022-08-19T01:50:40.187Z,21.89
2022-08-19T01:53:10.879Z,21.86
2022-08-19T01:55:41.940Z,21.85
2022-08-19T01:58:15.017Z,21.86
2022-08-19T02:00:43.598Z,21.81
2022-08-19T02:03:12.479Z,21.83
2022-08-19T02:05:44.148Z,21.80
2022-08-19T02:08:12.019Z,21.75
2022-08-19T02:10:46.179Z,21.79
2022-08-19T02:13:26.467Z,21.78
2022-08-19T02:16:14.086Z,21.77
2022-08-19T02:18:41.570Z,21.74
2022-08-19T02:21:09.205Z,21.75
2022-08-19T02:23:39.960Z,21.74
2022-08-19T02:26:07.552Z,21.71
2022-08-19T02:28:35.915Z,21.67
2022-08-19T02:31:04.528Z,21.67
2022-08-19T02:33:32.092Z,21.66
2022-08-19T02:35:59.683Z,21.72
2022-08-19T02:38:27.222Z,21.65
2022-08-19T02:41:06.838Z,21.68
2022-08-19T02:43:37.463Z,21.64
2022-08-19T02:46:14.506Z,21.65
2022-08-19T02:48:42.475Z,21.59
2022-08-19T02:51:09.975Z,21.63
2022-08-19T02:53:38.332Z,21.59
2022-08-19T02:56:08.892Z,21.67
2022-08-19T02:58:36.365Z,21.65
2022-08-19T03:01:04.050Z,21.69
2022-08-19T03:03:32.986Z,21.70
2022-08-19T03:06:07.585Z,21.67
2022-08-19T03:08:37.903Z,21.63
2022-08-19T03:11:05.619Z,21.62
2022-08-19T03:13:33.906Z,21.64
2022-08-19T03:16:06.614Z,21.58
2022-08-19T03:18:36.716Z,21.57
2022-08-19T03:21:06.714Z,21.60
2022-08-19T03:23:37.584Z,21.59
2022-08-19T03:26:16.619Z,21.61
2022-08-19T03:28:57.823Z,21.68
2022-08-19T03:31:43.282Z,21.75
2022-08-19T03:34:18.913Z,21.72
2022-08-19T03:36:48.121Z,21.80
2022-08-19T03:39:16.634Z,21.78
2022-08-19T03:41:48.187Z,21.76
2022-08-19T03:44:21.861Z,21.73
2022-08-19T03:46:56.229Z,21.64
2022-08-19T03:49:27.157Z,21.72
2022-08-19T03:51:58.539Z,21.80
2022-08-19T03:54:29.391Z,21.81
2022-08-19T03:56:58.358Z,21.88
2022-08-19T03:59:29.619Z,21.98
2022-08-19T04:01:59.600Z,22.07
2022-08-19T04:04:29.334Z,22.12
2022-08-19T04:06:57.844Z,22.14
2022-08-19T04:09:25.850Z,22.18
2022-08-19T04:11:58.110Z,22.23
2022-08-19T04:14:31.364Z,22.24
2022-08-19T04:17:02.175Z,22.29
2022-08-19T04:19:31.554Z,22.30
2022-08-19T04:21:59.670Z,22.38
2022-08-19T04:24:27.249Z,22.39
2022-08-19T04:26:55.205Z,22.38
2022-08-19T04:29:26.122Z,22.43
2022-08-19T04:31:56.649Z,22.48
2022-08-19T04:34:29.396Z,22.60
2022-08-19T04:36:59.379Z,22.66
2022-08-19T04:39:48.922Z,22.69
2022-08-19T04:42:37.047Z,22.83
2022-08-19T04:45:09.396Z,22.97
2022-08-19T04:47:47.891Z,23.16
2022-08-19T04:50:27.398Z,23.15
2022-08-19T04:52:57.432Z,23.13
2022-08-19T04:55:26.805Z,23.20
2022-08-19T04:57:57.537Z,23.42
2022-08-19T05:00:25.199Z,23.48
2022-08-19T05:02:52.865Z,23.55
2022-08-19T05:05:20.899Z,23.59
2022-08-19T05:07:49.063Z,23.63
2022-08-19T05:10:20.207Z,23.64
2022-08-19T05:12:50.323Z,23.62
2022-08-19T05:15:17.908Z,23.62
2022-08-19T05:18:08.148Z,23.83
2022-08-19T05:21:00.476Z,23.97
2022-08-19T05:23:28.043Z,24.05
2022-08-19T05:25:55.536Z,24.11
2022-08-19T05:28:23.065Z,24.20
2022-08-19T05:30:51.985Z,24.25
2022-08-19T05:33:22.895Z,24.32
2022-08-19T05:35:50.533Z,24.44
2022-08-19T05:38:18.833Z,24.48
2022-08-19T05:40:48.106Z,24.50
2022-08-19T05:43:21.897Z,24.54
2022-08-19T05:45:52.550Z,24.51
2022-08-19T05:48:21.603Z,24.50
2022-08-19T05:50:52.069Z,24.46
2022-08-19T05:53:19.954Z,24.55
2022-08-19T05:55:47.464Z,24.55
2022-08-19T05:58:15.026Z,24.60
2022-08-19T06:00:45.053Z,24.68
2022-08-19T06:03:13.362Z,24.76
2022-08-19T06:05:51.565Z,24.88
2022-08-19T06:08:33.731Z,25.02
2022-08-19T06:11:23.455Z,25.16
2022-08-19T06:13:57.272Z,25.21
2022-08-19T06:16:29.337Z,25.30
2022-08-19T06:18:58.110Z,25.39
2022-08-19T06:21:28.646Z,25.56
2022-08-19T06:23:57.487Z,25.77
2022-08-19T06:26:26.014Z,25.85
2022-08-19T06:28:53.570Z,25.87
2022-08-19T06:31:24.953Z,25.82
2022-08-19T06:33:53.097Z,25.84
2022-08-19T06:36:47.646Z,25.91
2022-08-19T06:39:18.390Z,25.96
2022-08-19T06:41:52.545Z,25.81
2022-08-19T06:44:25.824Z,25.74
2022-08-19T06:46:55.177Z,25.60
2022-08-19T06:49:24.083Z,25.62
2022-08-19T06:51:52.151Z,25.63
2022-08-19T06:54:30.733Z,25.58
2022-08-19T06:57:03.050Z,25.49
2022-08-19T06:59:33.661Z,25.54
2022-08-19T07:02:07.663Z,25.46
2022-08-19T07:04:37.046Z,25.46
2022-08-19T07:07:20.104Z,25.54
2022-08-19T07:09:51.868Z,25.62
2022-08-19T07:12:35.707Z,25.73
2022-08-19T07:15:07.441Z,25.80
2022-08-19T07:17:39.060Z,25.95
2022-08-19T07:20:09.495Z,26.25
2022-08-19T07:22:40.240Z,26.57
2022-08-19T07:25:09.560Z,26.96
2022-08-19T07:27:39.684Z,27.56
2022-08-19T07:30:14.756Z,28.18
2022-08-19T07:32:43.476Z,28.66
2022-08-19T07:35:11.374Z,29.03
2022-08-19T07:37:40.285Z,29.20
2022-08-19T07:40:12.234Z,29.55
2022-08-19T07:42:40.059Z,29.93
2022-08-19T07:45:09.050Z,30.08
2022-08-19T07:47:50.091Z,30.32
2022-08-19T07:50:24.501Z,30.41
2022-08-19T07:52:52.884Z,30.12
2022-08-19T07:55:41.420Z,29.85
2022-08-19T07:58:14.612Z,30.03
2022-08-19T08:00:43.876Z,30.30
2022-08-19T08:03:12.213Z,30.56
2022-08-19T08:05:58.049Z,30.79
2022-08-19T08:08:48.674Z,31.30
2022-08-19T08:11:20.715Z,31.66
2022-08-19T08:14:00.942Z,31.91
2022-08-19T08:16:39.714Z,31.94
2022-08-19T08:19:25.753Z,32.06
2022-08-19T08:21:58.235Z,32.31
2022-08-19T08:24:31.831Z,32.64
2022-08-19T08:27:01.295Z,32.88
2022-08-19T08:29:35.068Z,32.95
2022-08-19T08:32:03.726Z,32.75
2022-08-19T08:34:42.551Z,32.43
2022-08-19T08:37:12.900Z,31.93
2022-08-19T08:39:43.798Z,31.55
2022-08-19T08:42:18.591Z,31.43
2022-08-19T08:44:59.295Z,31.03
2022-08-19T08:47:33.769Z,30.50
2022-08-19T08:50:15.669Z,30.32
2022-08-19T08:52:48.639Z,30.28
2022-08-19T08:55:20.603Z,30.35
2022-08-19T08:57:50.155Z,30.54
2022-08-19T09:00:25.144Z,31.26
2022-08-19T09:02:52.743Z,32.21
2022-08-19T09:05:26.038Z,32.85
2022-08-19T09:08:04.899Z,33.05
2022-08-19T09:10:35.394Z,32.96
2022-08-19T09:13:30.229Z,33.47
2022-08-19T09:16:10.142Z,34.00
2022-08-19T09:18:40.619Z,34.52
2022-08-19T09:21:09.875Z,34.68
2022-08-19T09:23:38.441Z,34.29
2022-08-19T09:26:16.978Z,34.36
2022-08-19T09:28:48.672Z,34.25
2022-08-19T09:31:19.790Z,34.36
2022-08-19T09:33:48.249Z,34.71
2022-08-19T09:36:21.762Z,35.04
2022-08-19T09:39:02.958Z,36.20
2022-08-19T09:41:30.748Z,35.93
2022-08-19T09:43:59.836Z,36.28
2022-08-19T09:46:29.488Z,36.68
2022-08-19T09:49:06.377Z,36.53
2022-08-19T09:51:35.106Z,36.50
2022-08-19T09:54:05.188Z,37.20
2022-08-19T09:56:34.103Z,37.31
2022-08-19T09:59:04.646Z,37.08
2022-08-19T10:01:33.578Z,36.88
2022-08-19T10:04:07.532Z,36.95
2022-08-19T10:06:46.799Z,38.00
2022-08-19T10:09:17.951Z,37.74
2022-08-19T10:12:03.680Z,37.95
2022-08-19T10:14:32.305Z,38.08
2022-08-19T10:17:01.393Z,38.18
2022-08-19T10:19:55.248Z,38.68
2022-08-19T10:22:25.752Z,38.93
2022-08-19T10:24:54.443Z,38.80
2022-08-19T10:27:22.580Z,38.60
2022-08-19T10:29:50.143Z,38.57
2022-08-19T10:32:17.729Z,38.93
2022-08-19T10:34:48.857Z,38.87
2022-08-19T10:37:23.625Z,38.98
2022-08-19T10:39:52.409Z,38.79
2022-08-19T10:42:20.286Z,38.31
2022-08-19T10:44:47.920Z,38.45
2022-08-19T10:47:24.459Z,38.89
2022-08-19T10:50:14.205Z,39.29
2022-08-19T10:52:49.073Z,39.37
2022-08-19T10:55:40.538Z,40.25
2022-08-19T10:58:24.184Z,39.15
2022-08-19T11:00:58.395Z,38.51
2022-08-19T11:03:29.017Z,38.08
2022-08-19T11:06:05.464Z,37.78
2022-08-19T11:08:35.188Z,37.54
2022-08-19T11:11:04.802Z,36.92
2022-08-19T11:13:38.353Z,37.01
2022-08-19T11:16:11.899Z,37.55
2022-08-19T11:18:43.881Z,37.99
2022-08-19T11:21:18.103Z,38.77
2022-08-19T11:23:47.893Z,39.21
2022-08-19T11:26:16.905Z,39.26
2022-08-19T11:28:45.003Z,39.31
2022-08-19T11:31:20.961Z,39.49
2022-08-19T11:33:52.309Z,39.34
2022-08-19T11:36:21.872Z,39.10
2022-08-19T11:38:50.825Z,38.70
2022-08-19T11:41:20.585Z,37.88
2022-08-19T11:43:48.610Z,36.72
2022-08-19T11:46:17.766Z,35.86
2022-08-19T11:48:45.660Z,35.91
2022-08-19T11:51:17.308Z,36.26
2022-08-19T11:53:45.644Z,36.69
2022-08-19T11:56:13.882Z,37.07
2022-08-19T11:58:44.835Z,37.28
2022-08-19T12:01:15.895Z,37.33
2022-08-19T12:03:45.208Z,37.45
2022-08-19T12:06:20.729Z,37.59
2022-08-19T12:08:48.635Z,37.64
2022-08-19T12:11:16.975Z,37.51
2022-08-19T12:13:48.885Z,37.26
2022-08-19T12:16:19.850Z,37.00
2022-08-19T12:18:48.427Z,36.90
2022-08-19T12:21:18.333Z,36.68
2022-08-19T12:23:51.670Z,36.67
2022-08-19T12:26:21.920Z,36.84
2022-08-19T12:28:49.597Z,36.91
2022-08-19T12:31:17.575Z,37.03
2022-08-19T12:33:45.298Z,36.82
2022-08-19T12:36:15.665Z,36.85
2022-08-19T12:38:45.235Z,36.89
2022-08-19T12:41:15.623Z,36.97
2022-08-19T12:43:43.658Z,37.21
2022-08-19T12:46:11.888Z,37.12
2022-08-19T12:48:47.581Z,36.79
2022-08-19T12:51:21.094Z,36.49
2022-08-19T12:53:48.836Z,35.95
2022-08-19T12:56:20.062Z,35.28
2022-08-19T12:58:53.377Z,34.91
2022-08-19T13:01:23.149Z,34.37
2022-08-19T13:03:54.946Z,33.56
2022-08-19T13:06:22.616Z,33.16
2022-08-19T13:08:50.238Z,32.89
2022-08-19T13:11:21.358Z,32.45
2022-08-19T13:13:52.215Z,31.90
2022-08-19T13:16:21.366Z,31.63
2022-08-19T13:18:52.975Z,31.20
2022-08-19T13:21:24.057Z,30.50
2022-08-19T13:23:52.665Z,29.83
2022-08-19T13:26:20.264Z,29.30
2022-08-19T13:29:06.629Z,28.89
2022-08-19T13:31:55.803Z,28.58
2022-08-19T13:34:36.164Z,28.36
2022-08-19T13:37:06.278Z,28.19
2022-08-19T13:39:35.115Z,28.03
2022-08-19T13:42:05.257Z,28.00
2022-08-19T13:44:33.423Z,27.98
2022-08-19T13:47:06.713Z,27.93
2022-08-19T13:49:37.411Z,27.83
2022-08-19T13:52:06.666Z,27.64
2022-08-19T13:54:34.452Z,27.50
2022-08-19T13:57:02.230Z,27.38
2022-08-19T13:59:29.714Z,27.24
2022-08-19T14:02:01.628Z,27.17
2022-08-19T14:04:29.324Z,27.07
2022-08-19T14:06:56.830Z,27.03
2022-08-19T14:09:24.474Z,27.00
2022-08-19T14:11:52.461Z,27.01
2022-08-19T14:14:22.574Z,27.01
2022-08-19T14:16:50.328Z,26.94
2022-08-19T14:19:17.832Z,26.90
2022-08-19T14:21:53.837Z,26.84
2022-08-19T14:24:21.463Z,26.71
2022-08-19T14:26:51.560Z,26.54
2022-08-19T14:29:22.145Z,26.49
2022-08-19T14:31:50.031Z,26.36
2022-08-19T14:34:17.568Z,26.34
2022-08-19T14:36:46.122Z,26.36
2022-08-19T14:39:16.264Z,26.30
2022-08-19T14:41:44.156Z,26.26
2022-08-19T14:44:13.565Z,26.27
2022-08-19T14:46:41.861Z,26.27
2022-08-19T14:49:17.485Z,26.22
2022-08-19T14:51:47.963Z,26.11
2022-08-19T14:54:15.573Z,26.08
2022-08-19T14:56:43.127Z,26.04
2022-08-19T14:59:10.862Z,26.02
2022-08-19T15:01:38.626Z,25.95
2022-08-19T15:04:06.339Z,25.97
2022-08-19T15:06:34.528Z,25.92
2022-08-19T15:09:04.391Z,25.89
2022-08-19T15:11:35.178Z,25.87
2022-08-19T15:14:06.423Z,25.83
2022-08-19T15:16:34.140Z,25.86
2022-08-19T15:19:02.130Z,25.87
2022-08-19T15:21:31.189Z,25.82
2022-08-19T15:23:59.785Z,25.84
2022-08-19T15:26:33.237Z,25.85
2022-08-19T15:29:04.986Z,25.82
2022-08-19T15:31:37.959Z,25.74
2022-08-19T15:34:16.122Z,25.68
2022-08-19T15:36:43.867Z,25.70
2022-08-19T15:39:11.367Z,25.71
2022-08-19T15:41:41.194Z,25.72
2022-08-19T15:44:14.779Z,25.74
2022-08-19T15:46:47.674Z,25.71
2022-08-19T15:49:18.353Z,25.70
2022-08-19T15:51:48.552Z,25.70
2022-08-19T15:54:22.482Z,25.74
2022-08-19T15:57:10.159Z,25.67
2022-08-19T16:00:00.114Z,25.67
2022-08-19T16:02:53.746Z,25.63
2022-08-19T16:05:46.802Z,25.65
2022-08-19T16:08:15.655Z,25.66
2022-08-19T16:10:43.233Z,25.56
2022-08-19T16:13:11.060Z,25.51
2022-08-19T16:15:40.114Z,25.48
2022-08-19T16:18:07.762Z,25.38
2022-08-19T16:20:35.688Z,25.30
2022-08-19T16:23:05.157Z,25.19
2022-08-19T16:25:32.939Z,25.13
2022-08-19T16:28:07.334Z,25.08
2022-08-19T16:30:38.577Z,25.03
2022-08-19T16:33:07.321Z,24.98
2022-08-19T16:35:37.036Z,24.95
2022-08-19T16:38:04.806Z,24.94
2022-08-19T16:40:34.107Z,24.90
2022-08-19T16:43:02.558Z,24.84
2022-08-19T16:45:30.542Z,24.73
2022-08-19T16:47:58.308Z,24.72
2022-08-19T16:50:48.213Z,24.73
2022-08-19T16:53:19.254Z,24.64
2022-08-19T16:55:57.523Z,24.62
2022-08-19T16:58:28.132Z,24.51
2022-08-19T17:01:05.596Z,24.50
2022-08-19T17:03:36.210Z,24.47
2022-08-19T17:06:15.965Z,24.44
2022-08-19T17:08:52.038Z,24.39
2022-08-19T17:11:21.296Z,24.35
2022-08-19T17:13:50.895Z,24.37
2022-08-19T17:16:22.228Z,24.33
2022-08-19T17:18:53.564Z,24.35
2022-08-19T17:21:29.571Z,24.30
2022-08-19T17:23:57.919Z,24.22
2022-08-19T17:26:27.124Z,24.19
2022-08-19T17:28:59.312Z,24.14
2022-08-19T17:31:30.085Z,24.08
2022-08-19T17:33:59.034Z,24.09
2022-08-19T17:36:29.401Z,24.00
2022-08-19T17:38:59.475Z,23.95
2022-08-19T17:41:28.686Z,23.94
2022-08-19T17:43:56.964Z,23.93
2022-08-19T17:46:24.659Z,23.90
2022-08-19T17:48:56.797Z,23.81
2022-08-19T17:51:40.390Z,23.86
2022-08-19T17:54:16.466Z,23.82
2022-08-19T17:56:45.355Z,23.76
2022-08-19T17:59:14.479Z,23.72
2022-08-19T18:01:53.047Z,23.70
2022-08-19T18:04:25.698Z,23.62
2022-08-19T18:06:55.632Z,23.63
2022-08-19T18:09:38.663Z,23.57
2022-08-19T18:12:14.201Z,23.58
2022-08-19T18:14:42.585Z,23.54
2022-08-19T18:17:13.106Z,23.46
2022-08-19T18:19:43.954Z,23.50
2022-08-19T18:22:27.148Z,23.44
2022-08-19T18:24:57.157Z,23.41
2022-08-19T18:27:27.162Z,23.42
2022-08-19T18:30:01.150Z,23.41
2022-08-19T18:32:34.567Z,23.36
2022-08-19T18:35:05.591Z,23.30
2022-08-19T18:37:33.150Z,23.27
2022-08-19T18:40:19.190Z,23.22
2022-08-19T18:43:05.703Z,23.22
2022-08-19T18:45:51.895Z,23.14
2022-08-19T18:48:38.246Z,23.08
2022-08-19T18:51:06.277Z,23.07
2022-08-19T18:53:36.285Z,23.04
2022-08-19T18:56:05.831Z,23.02
2022-08-19T18:58:35.068Z,22.92
2022-08-19T19:01:11.913Z,22.93
2022-08-19T19:03:45.857Z,22.93
2022-08-19T19:06:18.957Z,22.87
2022-08-19T19:08:47.540Z,22.83
2022-08-19T19:11:21.664Z,22.73
2022-08-19T19:13:53.377Z,22.75
2022-08-19T19:16:24.526Z,22.78
2022-08-19T19:18:52.943Z,22.70
2022-08-19T19:21:23.194Z,22.75
2022-08-19T19:23:52.686Z,22.78
2022-08-19T19:26:21.908Z,22.76
2022-08-19T19:28:50.412Z,22.73
2022-08-19T19:31:26.843Z,22.70
2022-08-19T19:33:56.222Z,22.66
2022-08-19T19:36:24.129Z,22.64
2022-08-19T19:38:52.579Z,22.61
2022-08-19T19:41:26.058Z,22.55
2022-08-19T19:44:23.280Z,22.51
2022-08-19T19:46:43.986Z,22.51
2022-08-19T19:49:13.384Z,22.48
2022-08-19T19:51:42.781Z,22.46
2022-08-19T19:54:16.801Z,22.43
2022-08-19T19:56:46.138Z,22.42
2022-08-19T19:59:13.668Z,22.40
2022-08-19T20:01:46.936Z,22.36
2022-08-19T20:04:17.318Z,22.31
2022-08-19T20:06:46.689Z,22.29
2022-08-19T20:09:19.916Z,22.32
2022-08-19T20:11:54.775Z,22.29
2022-08-19T20:14:28.515Z,22.25
2022-08-19T20:16:56.690Z,22.22
2022-08-19T20:19:27.441Z,22.13
2022-08-19T20:21:58.103Z,22.11
2022-08-19T20:24:29.030Z,22.12
2022-08-19T20:26:56.545Z,22.09
2022-08-19T20:29:38.381Z,22.07
2022-08-19T20:32:08.436Z,21.97
2022-08-19T20:34:37.318Z,21.96
2022-08-19T20:37:05.414Z,21.95
2022-08-19T20:39:32.970Z,21.87
2022-08-19T20:42:00.929Z,21.89
2022-08-19T20:44:28.578Z,21.85
2022-08-19T20:46:59.402Z,21.82
2022-08-19T20:49:29.518Z,21.81
2022-08-19T20:51:57.318Z,21.72
2022-08-19T20:54:25.342Z,21.72
2022-08-19T20:56:53.468Z,21.65
2022-08-19T20:59:23.019Z,21.63
2022-08-19T21:01:51.996Z,21.53
2022-08-19T21:04:21.502Z,21.53
2022-08-19T21:06:52.518Z,21.54
2022-08-19T21:09:20.500Z,21.50
2022-08-19T21:11:48.448Z,21.47
2022-08-19T21:14:16.342Z,21.50
2022-08-19T21:16:47.169Z,21.51
2022-08-19T21:19:14.751Z,21.44
2022-08-19T21:21:42.420Z,21.44
2022-08-19T21:24:09.915Z,21.41
2022-08-19T21:26:37.429Z,21.38
2022-08-19T21:29:04.963Z,21.34
2022-08-19T21:31:32.896Z,21.35
2022-08-19T21:34:00.962Z,21.37
2022-08-19T21:36:28.560Z,21.38
2022-08-19T21:38:56.050Z,21.41
2022-08-19T21:41:23.682Z,21.43
2022-08-19T21:43:51.174Z,21.47
2022-08-19T21:46:18.781Z,21.47
2022-08-19T21:48:46.297Z,21.50
2022-08-19T21:51:13.924Z,21.50
2022-08-19T21:53:41.513Z,21.47
2022-08-19T21:56:12.245Z,21.41
2022-08-19T21:58:41.379Z,21.34
2022-08-19T22:01:09.349Z,21.22
2022-08-19T22:03:38.915Z,21.19
2022-08-19T22:06:07.444Z,21.11
2022-08-19T22:08:35.583Z,21.09
2022-08-19T22:11:04.453Z,21.06
2022-08-19T22:13:40.083Z,21.03
2022-08-19T22:16:10.909Z,20.99
2022-08-19T22:18:38.606Z,21.01
2022-08-19T22:21:11.278Z,20.98
2022-08-19T22:23:41.491Z,20.92
2022-08-19T22:26:09.219Z,20.95
2022-08-19T22:28:37.828Z,20.89
2022-08-19T22:31:07.536Z,20.88
2022-08-19T22:33:36.831Z,20.86
2022-08-19T22:36:07.621Z,20.82
2022-08-19T22:38:38.434Z,20.80
2022-08-19T22:41:07.988Z,20.74
2022-08-19T22:43:37.634Z,20.69
2022-08-19T22:46:17.244Z,20.70
2022-08-19T22:48:46.715Z,20.71
2022-08-19T22:51:34.298Z,20.63
2022-08-19T22:54:02.561Z,20.58
2022-08-19T22:56:30.364Z,20.66
2022-08-19T22:58:58.318Z,20.61
2022-08-19T23:01:30.422Z,20.59
2022-08-19T23:03:59.858Z,20.51
2022-08-19T23:06:33.976Z,20.49
2022-08-19T23:09:06.847Z,20.49
2022-08-19T23:11:43.580Z,20.43
2022-08-19T23:14:12.751Z,20.44
2022-08-19T23:16:41.628Z,20.42
2022-08-19T23:19:10.346Z,20.34
2022-08-19T23:21:42.387Z,20.34
2022-08-19T23:24:10.406Z,20.31
2022-08-19T23:26:38.759Z,20.24
2022-08-19T23:29:24.724Z,20.21
2022-08-19T23:31:52.268Z,20.19
2022-08-19T23:34:19.836Z,20.16
2022-08-19T23:36:48.461Z,20.10
2022-08-19T23:39:16.102Z,20.02
2022-08-19T23:41:43.626Z,20.01
2022-08-19T23:44:14.872Z,19.97
2022-08-19T23:46:54.403Z,19.87
2022-08-19T23:49:26.134Z,19.88
2022-08-19T23:51:54.825Z,19.89
2022-08-19T23:54:32.028Z,19.88
2022-08-19T23:57:13.269Z,19.83
2022-08-19T23:59:45.455Z,19.73
